createdAt,value
2023-03-23T00:04:52.685Z,56
2023-03-23T00:14:52.675Z,56
2023-03-23T00:24:52.699Z,56
2023-03-23T00:34:52.654Z,57
2023-03-23T00:44:54.270Z,57
2023-03-23T00:54:52.656Z,57
2023-03-23T01:04:52.607Z,58
2023-03-23T01:14:52.562Z,58
2023-03-23T01:24:52.538Z,58
2023-03-23T01:34:52.536Z,58
2023-03-23T01:44:52.538Z,59
2023-03-23T01:54:52.507Z,59
2023-03-23T02:04:52.491Z,59
2023-03-23T02:14:52.452Z,59
2023-03-23T02:24:52.504Z,60
2023-03-23T02:34:52.431Z,60
2023-03-23T02:44:52.419Z,60
2023-03-23T02:54:52.416Z,60
2023-03-23T03:04:52.367Z,60
2023-03-23T03:14:52.387Z,61
2023-03-23T03:24:52.332Z,61
2023-03-23T03:34:52.320Z,61
2023-03-23T03:44:52.295Z,61
2023-03-23T03:54:52.270Z,61
2023-03-23T04:04:52.275Z,62
2023-03-23T04:14:52.243Z,62
2023-03-23T04:24:56.167Z,62
2023-03-23T04:34:52.213Z,62
2023-03-23T04:44:52.223Z,62
2023-03-23T04:54:52.185Z,62
2023-03-23T05:04:52.155Z,62
2023-03-23T05:14:52.136Z,62
2023-03-23T05:24:52.118Z,62
2023-03-23T05:34:52.107Z,63
2023-03-23T05:44:52.088Z,63
2023-03-23T05:54:52.080Z,63
2023-03-23T06:04:52.062Z,63
2023-03-23T06:14:52.055Z,63
2023-03-23T06:24:52.034Z,63
2023-03-23T06:34:51.990Z,63
2023-03-23T06:44:52.009Z,62
2023-03-23T06:54:51.965Z,62
2023-03-23T07:04:51.960Z,62
2023-03-23T07:14:51.918Z,62
2023-03-23T07:24:51.928Z,61
2023-03-23T07:34:51.902Z,61
2023-03-23T07:44:51.887Z,61
2023-03-23T07:54:51.833Z,60
2023-03-23T08:04:51.827Z,60
2023-03-23T08:14:51.810Z,60
2023-03-23T08:24:51.790Z,59
2023-03-23T08:34:51.785Z,59
2023-03-23T08:44:51.747Z,59
2023-03-23T08:54:51.718Z,58
2023-03-23T09:04:51.717Z,57
2023-03-23T09:14:51.689Z,57
2023-03-23T09:24:51.659Z,57
2023-03-23T09:34:51.639Z,57
2023-03-23T09:44:51.629Z,57
2023-03-23T09:54:51.601Z,57
2023-03-23T10:04:51.572Z,56
2023-03-23T10:14:51.571Z,56
2023-03-23T10:24:51.536Z,56
2023-03-23T10:34:51.514Z,56
2023-03-23T10:44:51.492Z,56
2023-03-23T10:54:51.482Z,55
2023-03-23T11:04:51.462Z,55
2023-03-23T11:14:51.442Z,54
2023-03-23T11:24:51.430Z,53
2023-03-23T11:34:51.659Z,52
2023-03-23T11:44:51.363Z,51
2023-03-23T11:54:51.370Z,51
2023-03-23T12:04:51.320Z,50
2023-03-23T12:14:51.307Z,50
2023-03-23T12:24:51.280Z,50
2023-03-23T12:34:51.277Z,50
2023-03-23T12:44:51.245Z,51
2023-03-23T12:54:51.236Z,51
2023-03-23T13:04:51.225Z,52
2023-03-23T13:14:51.190Z,52
2023-03-23T13:24:51.165Z,53
2023-03-23T13:34:51.146Z,53
2023-03-23T13:44:51.133Z,53
2023-03-23T13:54:51.105Z,53
2023-03-23T14:04:51.100Z,54
2023-03-23T14:14:51.091Z,54
2023-03-23T14:24:51.045Z,55
2023-03-23T14:34:51.024Z,55
2023-03-23T14:44:51.017Z,56
2023-03-23T14:54:50.992Z,56
2023-03-23T15:04:50.951Z,56
2023-03-23T15:14:50.950Z,56
2023-03-23T15:24:50.924Z,56
2023-03-23T15:34:50.941Z,57
2023-03-23T15:44:50.920Z,57
2023-03-23T15:54:50.857Z,57
2023-03-23T16:04:50.850Z,57
2023-03-23T16:14:50.827Z,58
2023-03-23T16:24:50.816Z,58
2023-03-23T16:34:50.857Z,58
2023-03-23T16:44:50.760Z,58
2023-03-23T16:54:50.736Z,59
2023-03-23T17:04:50.715Z,59
2023-03-23T17:14:50.706Z,59
2023-03-23T17:24:50.696Z,60
2023-03-23T17:34:50.657Z,60
2023-03-23T17:44:50.676Z,61
2023-03-23T17:54:50.614Z,61
2023-03-23T18:04:50.594Z,62
2023-03-23T18:14:50.603Z,62
2023-03-23T18:24:50.593Z,63
2023-03-23T18:34:50.549Z,63
2023-03-23T18:44:50.553Z,64
2023-03-23T18:54:50.508Z,64
2023-03-23T19:04:50.499Z,64
2023-03-23T19:14:50.472Z,65
2023-03-23T19:24:50.471Z,65
2023-03-23T19:34:51.238Z,65
2023-03-23T19:44:50.854Z,66
2023-03-23T19:54:50.402Z,66
2023-03-23T20:04:50.546Z,66
2023-03-23T20:14:50.363Z,66
2023-03-23T20:24:50.375Z,67
2023-03-23T20:34:50.333Z,67
2023-03-23T20:44:50.349Z,67
2023-03-23T20:54:50.288Z,67
2023-03-23T21:04:50.311Z,68
2023-03-23T21:14:50.263Z,68
2023-03-23T21:24:50.224Z,68
2023-03-23T21:34:50.191Z,68
2023-03-23T21:44:50.200Z,68
2023-03-23T21:54:50.162Z,69
2023-03-23T22:04:50.160Z,69
2023-03-23T22:14:50.152Z,69
2023-03-23T22:24:50.156Z,69
2023-03-23T22:34:50.134Z,69
2023-03-23T22:44:50.102Z,69
2023-03-23T22:54:50.098Z,69
2023-03-23T23:04:50.089Z,70
2023-03-23T23:14:50.121Z,70
2023-03-23T23:24:50.029Z,70
2023-03-23T23:34:50.064Z,70
2023-03-23T23:44:50.075Z,70
2023-03-23T23:54:49.972Z,70
